sensor_id;sensor_type;location;lat;lon;timestamp;temperature;humidity
26655;DHT22;14278;50.784;4.630;2022-12-20T00:00:42;12.70;99.90
26655;DHT22;14278;50.784;4.630;2022-12-20T00:03:08;12.70;99.90
26655;DHT22;14278;50.784;4.630;2022-12-20T00:05:38;12.80;99.90
26655;DHT22;14278;50.784;4.630;2022-12-20T00:08:05;12.80;99.90
26655;DHT22;14278;50.784;4.630;2022-12-20T00:10:34;12.80;99.90
26655;DHT22;14278;50.784;4.630;2022-12-20T00:13:00;12.80;99.90
26655;DHT22;14278;50.784;4.630;2022-12-20T00:15:26;12.80;99.90
26655;DHT22;14278;50.784;4.630;2022-12-20T00:17:51;12.70;99.90
26655;DHT22;14278;50.784;4.630;2022-12-20T00:20:17;12.70;99.90
26655;DHT22;14278;50.784;4.630;2022-12-20T00:22:43;12.70;99.90
26655;DHT22;14278;50.784;4.630;2022-12-20T00:25:10;12.60;99.90
26655;DHT22;14278;50.784;4.630;2022-12-20T00:27:36;12.50;99.90
26655;DHT22;14278;50.784;4.630;2022-12-20T00:30:03;12.60;99.90
26655;DHT22;14278;50.784;4.630;2022-12-20T00:32:29;12.70;99.90
26655;DHT22;14278;50.784;4.630;2022-12-20T00:34:54;12.70;99.90
26655;DHT22;14278;50.784;4.630;2022-12-20T00:37:21;12.70;99.90
26655;DHT22;14278;50.784;4.630;2022-12-20T00:39:49;12.70;99.90
26655;DHT22;14278;50.784;4.630;2022-12-20T00:42:15;12.40;99.90
26655;DHT22;14278;50.784;4.630;2022-12-20T00:44:41;12.40;99.90
26655;DHT22;14278;50.784;4.630;2022-12-20T00:47:07;12.30;99.90
26655;DHT22;14278;50.784;4.630;2022-12-20T00:49:33;12.40;99.90
26655;DHT22;14278;50.784;4.630;2022-12-20T00:51:59;12.40;99.90
26655;DHT22;14278;50.784;4.630;2022-12-20T00:54:24;12.40;99.90
26655;DHT22;14278;50.784;4.630;2022-12-20T00:56:50;12.40;99.90
26655;DHT22;14278;50.784;4.630;2022-12-20T00:59:16;12.50;99.90
26655;DHT22;14278;50.784;4.630;2022-12-20T01:01:42;12.40;99.90
26655;DHT22;14278;50.784;4.630;2022-12-20T01:04:08;12.40;99.90
26655;DHT22;14278;50.784;4.630;2022-12-20T01:06:35;12.30;99.90
26655;DHT22;14278;50.784;4.630;2022-12-20T01:09:01;12.30;99.90
26655;DHT22;14278;50.784;4.630;2022-12-20T01:11:32;12.40;99.90
26655;DHT22;14278;50.784;4.630;2022-12-20T01:14:01;12.40;99.90
26655;DHT22;14278;50.784;4.630;2022-12-20T01:16:38;12.20;99.90
26655;DHT22;14278;50.784;4.630;2022-12-20T01:19:05;12.20;99.90
26655;DHT22;14278;50.784;4.630;2022-12-20T01:21:31;12.20;99.90
26655;DHT22;14278;50.784;4.630;2022-12-20T01:23:57;12.10;99.90
26655;DHT22;14278;50.784;4.630;2022-12-20T01:26:25;12.10;99.90
26655;DHT22;14278;50.784;4.630;2022-12-20T01:28:56;12.10;99.90
26655;DHT22;14278;50.784;4.630;2022-12-20T01:31:26;11.90;99.90
26655;DHT22;14278;50.784;4.630;2022-12-20T01:33:52;12.00;99.90
26655;DHT22;14278;50.784;4.630;2022-12-20T01:36:22;12.00;99.90
26655;DHT22;14278;50.784;4.630;2022-12-20T01:38:59;12.00;99.90
26655;DHT22;14278;50.784;4.630;2022-12-20T01:41:27;12.00;99.90
26655;DHT22;14278;50.784;4.630;2022-12-20T01:43:59;11.90;99.90
26655;DHT22;14278;50.784;4.630;2022-12-20T01:46:28;11.90;99.90
26655;DHT22;14278;50.784;4.630;2022-12-20T01:49:19;12.00;99.90
26655;DHT22;14278;50.784;4.630;2022-12-20T01:51:51;12.00;99.90
26655;DHT22;14278;50.784;4.630;2022-12-20T01:54:23;12.00;99.90
26655;DHT22;14278;50.784;4.630;2022-12-20T01:57:05;12.00;99.90
26655;DHT22;14278;50.784;4.630;2022-12-20T01:59:36;12.00;99.90
26655;DHT22;14278;50.784;4.630;2022-12-20T02:02:06;11.80;99.90
26655;DHT22;14278;50.784;4.630;2022-12-20T02:04:34;11.90;99.90
26655;DHT22;14278;50.784;4.630;2022-12-20T02:07:00;12.00;99.90
26655;DHT22;14278;50.784;4.630;2022-12-20T02:09:27;12.10;99.90
26655;DHT22;14278;50.784;4.630;2022-12-20T02:12:20;12.10;99.90
26655;DHT22;14278;50.784;4.630;2022-12-20T02:15:18;12.10;99.90
26655;DHT22;14278;50.784;4.630;2022-12-20T02:18:15;12.10;99.90
26655;DHT22;14278;50.784;4.630;2022-12-20T02:21:21;12.10;99.90
26655;DHT22;14278;50.784;4.630;2022-12-20T02:30:01;11.70;99.90
26655;DHT22;14278;50.784;4.630;2022-12-20T02:32:40;11.80;99.90
26655;DHT22;14278;50.784;4.630;2022-12-20T02:35:09;12.00;99.90
26655;DHT22;14278;50.784;4.630;2022-12-20T02:37:50;11.90;99.90
26655;DHT22;14278;50.784;4.630;2022-12-20T02:40:20;11.70;99.90
26655;DHT22;14278;50.784;4.630;2022-12-20T02:42:48;11.50;99.90
26655;DHT22;14278;50.784;4.630;2022-12-20T02:45:17;11.50;99.90
26655;DHT22;14278;50.784;4.630;2022-12-20T02:47:56;11.50;99.90
26655;DHT22;14278;50.784;4.630;2022-12-20T02:50:30;11.50;99.90
26655;DHT22;14278;50.784;4.630;2022-12-20T02:52:57;11.50;99.90
26655;DHT22;14278;50.784;4.630;2022-12-20T02:55:37;11.50;99.90
26655;DHT22;14278;50.784;4.630;2022-12-20T02:58:33;11.60;99.90
26655;DHT22;14278;50.784;4.630;2022-12-20T03:01:06;11.60;99.90
26655;DHT22;14278;50.784;4.630;2022-12-20T03:03:34;11.60;99.90
26655;DHT22;14278;50.784;4.630;2022-12-20T03:06:00;11.60;99.90
26655;DHT22;14278;50.784;4.630;2022-12-20T03:08:26;11.50;99.90
26655;DHT22;14278;50.784;4.630;2022-12-20T03:10:53;11.70;99.90
26655;DHT22;14278;50.784;4.630;2022-12-20T03:13:21;11.70;99.90
26655;DHT22;14278;50.784;4.630;2022-12-20T03:15:47;11.70;99.90
26655;DHT22;14278;50.784;4.630;2022-12-20T03:18:14;11.70;99.90
26655;DHT22;14278;50.784;4.630;2022-12-20T03:20:39;11.70;99.90
26655;DHT22;14278;50.784;4.630;2022-12-20T03:23:05;11.70;99.90
26655;DHT22;14278;50.784;4.630;2022-12-20T03:25:31;11.70;99.90
26655;DHT22;14278;50.784;4.630;2022-12-20T03:27:57;11.80;99.90
26655;DHT22;14278;50.784;4.630;2022-12-20T03:30:23;11.60;99.90
26655;DHT22;14278;50.784;4.630;2022-12-20T03:32:49;11.80;99.90
26655;DHT22;14278;50.784;4.630;2022-12-20T03:35:15;11.90;99.90
26655;DHT22;14278;50.784;4.630;2022-12-20T03:37:41;11.80;99.90
26655;DHT22;14278;50.784;4.630;2022-12-20T03:40:08;11.90;99.90
26655;DHT22;14278;50.784;4.630;2022-12-20T03:42:34;11.90;99.90
26655;DHT22;14278;50.784;4.630;2022-12-20T03:45:00;11.90;99.90
26655;DHT22;14278;50.784;4.630;2022-12-20T03:47:26;11.90;99.90
26655;DHT22;14278;50.784;4.630;2022-12-20T03:49:51;12.00;99.90
26655;DHT22;14278;50.784;4.630;2022-12-20T03:52:18;11.90;99.90
26655;DHT22;14278;50.784;4.630;2022-12-20T03:54:44;12.10;99.90
26655;DHT22;14278;50.784;4.630;2022-12-20T03:57:10;12.00;99.90
26655;DHT22;14278;50.784;4.630;2022-12-20T03:59:36;12.10;99.90
26655;DHT22;14278;50.784;4.630;2022-12-20T04:02:02;12.20;99.90
26655;DHT22;14278;50.784;4.630;2022-12-20T04:04:33;12.10;99.90
26655;DHT22;14278;50.784;4.630;2022-12-20T04:06:58;12.20;99.90
26655;DHT22;14278;50.784;4.630;2022-12-20T04:09:24;12.20;99.90
26655;DHT22;14278;50.784;4.630;2022-12-20T04:11:50;12.20;99.90
26655;DHT22;14278;50.784;4.630;2022-12-20T04:14:16;12.20;99.90
26655;DHT22;14278;50.784;4.630;2022-12-20T04:16:42;12.20;99.90
26655;DHT22;14278;50.784;4.630;2022-12-20T04:19:08;12.20;99.90
26655;DHT22;14278;50.784;4.630;2022-12-20T04:21:34;12.20;99.90
26655;DHT22;14278;50.784;4.630;2022-12-20T04:24:01;12.20;99.90
26655;DHT22;14278;50.784;4.630;2022-12-20T04:26:27;12.20;99.90
26655;DHT22;14278;50.784;4.630;2022-12-20T04:28:54;12.20;99.90
26655;DHT22;14278;50.784;4.630;2022-12-20T04:31:19;12.30;99.90
26655;DHT22;14278;50.784;4.630;2022-12-20T04:33:46;12.30;99.90
26655;DHT22;14278;50.784;4.630;2022-12-20T04:36:13;12.40;99.90
26655;DHT22;14278;50.784;4.630;2022-12-20T04:38:38;12.30;99.90
26655;DHT22;14278;50.784;4.630;2022-12-20T04:41:05;12.20;99.90
26655;DHT22;14278;50.784;4.630;2022-12-20T04:43:31;12.10;99.90
26655;DHT22;14278;50.784;4.630;2022-12-20T04:45:57;12.10;99.90
26655;DHT22;14278;50.784;4.630;2022-12-20T04:48:24;12.10;99.90
26655;DHT22;14278;50.784;4.630;2022-12-20T04:50:54;12.30;99.90
26655;DHT22;14278;50.784;4.630;2022-12-20T04:53:21;12.20;99.90
26655;DHT22;14278;50.784;4.630;2022-12-20T04:56:06;12.20;99.90
26655;DHT22;14278;50.784;4.630;2022-12-20T04:58:33;12.10;99.90
26655;DHT22;14278;50.784;4.630;2022-12-20T05:00:58;12.10;99.90
26655;DHT22;14278;50.784;4.630;2022-12-20T05:03:25;12.10;99.90
26655;DHT22;14278;50.784;4.630;2022-12-20T05:05:52;12.10;99.90
26655;DHT22;14278;50.784;4.630;2022-12-20T05:08:18;12.10;99.90
26655;DHT22;14278;50.784;4.630;2022-12-20T05:10:44;12.20;99.90
26655;DHT22;14278;50.784;4.630;2022-12-20T05:13:10;12.20;99.90
26655;DHT22;14278;50.784;4.630;2022-12-20T05:15:36;12.20;99.90
26655;DHT22;14278;50.784;4.630;2022-12-20T05:18:02;12.10;99.90
26655;DHT22;14278;50.784;4.630;2022-12-20T05:20:30;12.20;99.90
26655;DHT22;14278;50.784;4.630;2022-12-20T05:22:57;12.20;99.90
26655;DHT22;14278;50.784;4.630;2022-12-20T05:25:44;12.10;99.90
26655;DHT22;14278;50.784;4.630;2022-12-20T05:28:30;12.10;99.90
26655;DHT22;14278;50.784;4.630;2022-12-20T05:30:56;12.00;99.90
26655;DHT22;14278;50.784;4.630;2022-12-20T05:33:21;12.00;99.90
26655;DHT22;14278;50.784;4.630;2022-12-20T05:35:48;12.10;99.90
26655;DHT22;14278;50.784;4.630;2022-12-20T05:38:13;12.30;99.90
26655;DHT22;14278;50.784;4.630;2022-12-20T05:40:40;12.30;99.90
26655;DHT22;14278;50.784;4.630;2022-12-20T05:43:06;12.20;99.90
26655;DHT22;14278;50.784;4.630;2022-12-20T05:45:32;12.20;99.90
26655;DHT22;14278;50.784;4.630;2022-12-20T05:47:58;12.10;99.90
26655;DHT22;14278;50.784;4.630;2022-12-20T05:50:24;12.20;99.90
26655;DHT22;14278;50.784;4.630;2022-12-20T05:52:50;12.30;99.90
26655;DHT22;14278;50.784;4.630;2022-12-20T05:55:16;12.10;99.90
26655;DHT22;14278;50.784;4.630;2022-12-20T05:57:42;12.20;99.90
26655;DHT22;14278;50.784;4.630;2022-12-20T06:00:09;12.20;99.90
26655;DHT22;14278;50.784;4.630;2022-12-20T06:02:35;12.30;99.90
26655;DHT22;14278;50.784;4.630;2022-12-20T06:05:02;12.30;99.90
26655;DHT22;14278;50.784;4.630;2022-12-20T06:07:28;12.30;99.90
26655;DHT22;14278;50.784;4.630;2022-12-20T06:09:54;12.30;99.90
26655;DHT22;14278;50.784;4.630;2022-12-20T06:12:21;12.20;99.90
26655;DHT22;14278;50.784;4.630;2022-12-20T06:14:47;12.10;99.90
26655;DHT22;14278;50.784;4.630;2022-12-20T06:17:13;12.20;99.90
26655;DHT22;14278;50.784;4.630;2022-12-20T06:19:39;12.30;99.90
26655;DHT22;14278;50.784;4.630;2022-12-20T06:22:08;12.20;99.90
26655;DHT22;14278;50.784;4.630;2022-12-20T06:24:35;12.30;99.90
26655;DHT22;14278;50.784;4.630;2022-12-20T06:27:02;12.20;99.90
26655;DHT22;14278;50.784;4.630;2022-12-20T06:29:28;12.20;99.90
26655;DHT22;14278;50.784;4.630;2022-12-20T06:31:55;12.10;99.90
26655;DHT22;14278;50.784;4.630;2022-12-20T06:34:23;12.20;99.90
26655;DHT22;14278;50.784;4.630;2022-12-20T06:36:50;12.20;99.90
26655;DHT22;14278;50.784;4.630;2022-12-20T06:39:16;12.30;99.90
26655;DHT22;14278;50.784;4.630;2022-12-20T06:41:42;12.30;99.90
26655;DHT22;14278;50.784;4.630;2022-12-20T06:44:08;12.30;99.90
26655;DHT22;14278;50.784;4.630;2022-12-20T06:46:33;12.40;99.90
26655;DHT22;14278;50.784;4.630;2022-12-20T06:49:00;12.40;99.90
26655;DHT22;14278;50.784;4.630;2022-12-20T06:51:25;12.40;99.90
26655;DHT22;14278;50.784;4.630;2022-12-20T06:53:52;12.50;99.90
26655;DHT22;14278;50.784;4.630;2022-12-20T06:56:17;12.60;99.90
26655;DHT22;14278;50.784;4.630;2022-12-20T06:58:44;12.50;99.90
26655;DHT22;14278;50.784;4.630;2022-12-20T07:01:11;12.40;99.90
26655;DHT22;14278;50.784;4.630;2022-12-20T07:03:37;12.40;99.90
26655;DHT22;14278;50.784;4.630;2022-12-20T07:06:03;12.40;99.90
26655;DHT22;14278;50.784;4.630;2022-12-20T07:08:29;12.50;99.90
26655;DHT22;14278;50.784;4.630;2022-12-20T07:10:55;12.50;99.90
26655;DHT22;14278;50.784;4.630;2022-12-20T07:13:21;12.50;99.90
26655;DHT22;14278;50.784;4.630;2022-12-20T07:15:47;12.50;99.90
26655;DHT22;14278;50.784;4.630;2022-12-20T07:18:13;12.40;99.90
26655;DHT22;14278;50.784;4.630;2022-12-20T07:20:39;12.30;99.90
26655;DHT22;14278;50.784;4.630;2022-12-20T07:23:05;12.20;99.90
26655;DHT22;14278;50.784;4.630;2022-12-20T07:25:31;12.20;99.90
26655;DHT22;14278;50.784;4.630;2022-12-20T07:27:56;12.20;99.90
26655;DHT22;14278;50.784;4.630;2022-12-20T07:30:22;12.30;99.90
26655;DHT22;14278;50.784;4.630;2022-12-20T07:32:48;12.30;99.90
26655;DHT22;14278;50.784;4.630;2022-12-20T07:35:14;12.20;99.90
26655;DHT22;14278;50.784;4.630;2022-12-20T07:37:40;12.20;99.90
26655;DHT22;14278;50.784;4.630;2022-12-20T07:40:07;12.20;99.90
26655;DHT22;14278;50.784;4.630;2022-12-20T07:42:33;12.00;99.90
26655;DHT22;14278;50.784;4.630;2022-12-20T07:44:59;12.00;99.90
26655;DHT22;14278;50.784;4.630;2022-12-20T07:47:25;11.90;99.90
26655;DHT22;14278;50.784;4.630;2022-12-20T07:49:51;11.80;99.90
26655;DHT22;14278;50.784;4.630;2022-12-20T07:52:19;11.70;99.90
26655;DHT22;14278;50.784;4.630;2022-12-20T07:54:50;11.70;99.90
26655;DHT22;14278;50.784;4.630;2022-12-20T07:57:25;11.70;99.90
26655;DHT22;14278;50.784;4.630;2022-12-20T07:59:55;11.70;99.90
26655;DHT22;14278;50.784;4.630;2022-12-20T08:02:26;11.70;99.90
26655;DHT22;14278;50.784;4.630;2022-12-20T08:04:54;11.50;99.90
26655;DHT22;14278;50.784;4.630;2022-12-20T08:07:20;11.50;99.90
26655;DHT22;14278;50.784;4.630;2022-12-20T08:09:47;11.50;99.90
26655;DHT22;14278;50.784;4.630;2022-12-20T08:12:15;11.50;99.90
26655;DHT22;14278;50.784;4.630;2022-12-20T08:14:42;11.50;99.90
26655;DHT22;14278;50.784;4.630;2022-12-20T08:17:08;11.50;99.90
26655;DHT22;14278;50.784;4.630;2022-12-20T08:19:36;11.50;99.90
26655;DHT22;14278;50.784;4.630;2022-12-20T08:22:03;11.50;99.90
26655;DHT22;14278;50.784;4.630;2022-12-20T08:24:29;11.50;99.90
26655;DHT22;14278;50.784;4.630;2022-12-20T08:26:54;11.60;99.90
26655;DHT22;14278;50.784;4.630;2022-12-20T08:29:20;11.50;99.90
26655;DHT22;14278;50.784;4.630;2022-12-20T08:31:47;11.40;99.90
26655;DHT22;14278;50.784;4.630;2022-12-20T08:34:12;11.30;99.90
26655;DHT22;14278;50.784;4.630;2022-12-20T08:36:38;11.30;99.90
26655;DHT22;14278;50.784;4.630;2022-12-20T08:39:05;11.40;99.90
26655;DHT22;14278;50.784;4.630;2022-12-20T08:41:33;11.50;99.90
26655;DHT22;14278;50.784;4.630;2022-12-20T08:43:59;11.60;99.90
26655;DHT22;14278;50.784;4.630;2022-12-20T08:46:25;11.60;99.90
26655;DHT22;14278;50.784;4.630;2022-12-20T08:48:51;11.70;99.90
26655;DHT22;14278;50.784;4.630;2022-12-20T08:51:17;11.60;99.90
26655;DHT22;14278;50.784;4.630;2022-12-20T08:53:43;11.50;99.90
26655;DHT22;14278;50.784;4.630;2022-12-20T08:56:14;11.60;99.90
26655;DHT22;14278;50.784;4.630;2022-12-20T08:58:40;11.60;99.90
26655;DHT22;14278;50.784;4.630;2022-12-20T09:01:09;11.60;99.90
26655;DHT22;14278;50.784;4.630;2022-12-20T09:03:36;11.70;99.90
26655;DHT22;14278;50.784;4.630;2022-12-20T09:06:07;11.90;99.90
26655;DHT22;14278;50.784;4.630;2022-12-20T09:08:34;11.80;99.90
26655;DHT22;14278;50.784;4.630;2022-12-20T09:11:09;11.90;99.90
26655;DHT22;14278;50.784;4.630;2022-12-20T09:13:36;12.00;99.90
26655;DHT22;14278;50.784;4.630;2022-12-20T09:16:04;12.10;99.90
26655;DHT22;14278;50.784;4.630;2022-12-20T09:18:30;12.00;99.90
26655;DHT22;14278;50.784;4.630;2022-12-20T09:20:59;11.80;99.90
26655;DHT22;14278;50.784;4.630;2022-12-20T09:23:26;11.50;99.90
26655;DHT22;14278;50.784;4.630;2022-12-20T09:25:51;11.40;99.90
26655;DHT22;14278;50.784;4.630;2022-12-20T09:28:17;11.40;99.90
26655;DHT22;14278;50.784;4.630;2022-12-20T09:30:44;11.50;99.90
26655;DHT22;14278;50.784;4.630;2022-12-20T09:33:10;11.50;99.90
26655;DHT22;14278;50.784;4.630;2022-12-20T09:35:36;11.60;99.90
26655;DHT22;14278;50.784;4.630;2022-12-20T09:38:02;11.80;99.90
26655;DHT22;14278;50.784;4.630;2022-12-20T09:40:30;11.90;99.90
26655;DHT22;14278;50.784;4.630;2022-12-20T09:42:57;12.00;99.90
26655;DHT22;14278;50.784;4.630;2022-12-20T09:45:28;12.10;99.90
26655;DHT22;14278;50.784;4.630;2022-12-20T09:47:55;12.00;99.90
26655;DHT22;14278;50.784;4.630;2022-12-20T09:50:35;11.90;99.90
26655;DHT22;14278;50.784;4.630;2022-12-20T09:53:11;11.90;99.90
26655;DHT22;14278;50.784;4.630;2022-12-20T09:55:59;11.90;99.90
26655;DHT22;14278;50.784;4.630;2022-12-20T09:58:41;11.80;99.90
26655;DHT22;14278;50.784;4.630;2022-12-20T10:01:23;11.80;99.90
26655;DHT22;14278;50.784;4.630;2022-12-20T10:03:50;11.90;99.90
26655;DHT22;14278;50.784;4.630;2022-12-20T10:14:51;11.80;99.90
26655;DHT22;14278;50.784;4.630;2022-12-20T10:19:55;11.70;99.90
26655;DHT22;14278;50.784;4.630;2022-12-20T10:23:15;11.60;99.90
26655;DHT22;14278;50.784;4.630;2022-12-20T10:25:28;11.50;99.90
26655;DHT22;14278;50.784;4.630;2022-12-20T10:27:56;11.60;99.90
26655;DHT22;14278;50.784;4.630;2022-12-20T10:30:24;11.60;99.90
26655;DHT22;14278;50.784;4.630;2022-12-20T10:32:54;11.60;99.90
26655;DHT22;14278;50.784;4.630;2022-12-20T10:35:51;11.70;99.90
26655;DHT22;14278;50.784;4.630;2022-12-20T10:38:17;11.70;99.90
26655;DHT22;14278;50.784;4.630;2022-12-20T10:40:58;11.70;99.90
26655;DHT22;14278;50.784;4.630;2022-12-20T10:43:24;11.50;99.90
26655;DHT22;14278;50.784;4.630;2022-12-20T10:48:33;11.70;99.90
26655;DHT22;14278;50.784;4.630;2022-12-20T10:53:36;11.60;99.90
26655;DHT22;14278;50.784;4.630;2022-12-20T10:56:22;11.60;99.90
26655;DHT22;14278;50.784;4.630;2022-12-20T10:58:54;11.70;99.90
26655;DHT22;14278;50.784;4.630;2022-12-20T11:01:23;11.70;99.90
26655;DHT22;14278;50.784;4.630;2022-12-20T11:04:06;11.70;99.90
26655;DHT22;14278;50.784;4.630;2022-12-20T11:09:26;11.70;99.90
26655;DHT22;14278;50.784;4.630;2022-12-20T11:14:22;11.60;99.90
26655;DHT22;14278;50.784;4.630;2022-12-20T11:16:50;11.70;99.90
26655;DHT22;14278;50.784;4.630;2022-12-20T11:28:12;11.50;99.90
26655;DHT22;14278;50.784;4.630;2022-12-20T11:31:12;11.40;99.90
26655;DHT22;14278;50.784;4.630;2022-12-20T11:39:34;11.40;99.90
26655;DHT22;14278;50.784;4.630;2022-12-20T11:47:47;11.60;99.90
26655;DHT22;14278;50.784;4.630;2022-12-20T11:53:22;11.70;99.90
26655;DHT22;14278;50.784;4.630;2022-12-20T11:55:53;11.60;99.90
26655;DHT22;14278;50.784;4.630;2022-12-20T11:58:30;11.50;99.90
26655;DHT22;14278;50.784;4.630;2022-12-20T12:03:36;11.30;99.90
26655;DHT22;14278;50.784;4.630;2022-12-20T12:06:19;11.40;99.90
26655;DHT22;14278;50.784;4.630;2022-12-20T12:09:15;11.30;99.90
26655;DHT22;14278;50.784;4.630;2022-12-20T12:14:50;11.30;99.90
26655;DHT22;14278;50.784;4.630;2022-12-20T12:17:36;11.20;99.90
26655;DHT22;14278;50.784;4.630;2022-12-20T12:22:53;11.20;99.90
26655;DHT22;14278;50.784;4.630;2022-12-20T12:25:20;11.20;99.90
26655;DHT22;14278;50.784;4.630;2022-12-20T12:27:46;11.20;99.90
26655;DHT22;14278;50.784;4.630;2022-12-20T12:30:16;11.20;99.90
26655;DHT22;14278;50.784;4.630;2022-12-20T12:32:56;11.10;99.90
26655;DHT22;14278;50.784;4.630;2022-12-20T12:47:04;11.10;99.90
26655;DHT22;14278;50.784;4.630;2022-12-20T12:49:31;11.10;99.90
26655;DHT22;14278;50.784;4.630;2022-12-20T12:51:59;11.10;99.90
26655;DHT22;14278;50.784;4.630;2022-12-20T12:54:34;11.20;99.90
26655;DHT22;14278;50.784;4.630;2022-12-20T12:57:14;11.20;99.90
26655;DHT22;14278;50.784;4.630;2022-12-20T12:59:45;11.20;99.90
26655;DHT22;14278;50.784;4.630;2022-12-20T13:07:39;11.10;99.90
26655;DHT22;14278;50.784;4.630;2022-12-20T13:17:51;10.90;99.90
26655;DHT22;14278;50.784;4.630;2022-12-20T13:20:21;11.00;99.90
26655;DHT22;14278;50.784;4.630;2022-12-20T13:25:35;10.90;99.90
26655;DHT22;14278;50.784;4.630;2022-12-20T13:33:40;11.10;99.90
26655;DHT22;14278;50.784;4.630;2022-12-20T13:41:33;11.00;99.90
26655;DHT22;14278;50.784;4.630;2022-12-20T13:44:34;11.10;99.90
26655;DHT22;14278;50.784;4.630;2022-12-20T13:49:50;11.10;99.90
26655;DHT22;14278;50.784;4.630;2022-12-20T13:52:24;11.00;99.90
26655;DHT22;14278;50.784;4.630;2022-12-20T13:54:54;11.10;99.90
26655;DHT22;14278;50.784;4.630;2022-12-20T13:57:40;11.10;99.90
26655;DHT22;14278;50.784;4.630;2022-12-20T14:00:22;11.00;99.90
26655;DHT22;14278;50.784;4.630;2022-12-20T14:02:51;11.10;99.90
26655;DHT22;14278;50.784;4.630;2022-12-20T14:05:36;11.00;99.90
26655;DHT22;14278;50.784;4.630;2022-12-20T14:08:08;11.10;99.90
26655;DHT22;14278;50.784;4.630;2022-12-20T14:10:35;11.20;99.90
26655;DHT22;14278;50.784;4.630;2022-12-20T14:13:01;11.20;99.90
26655;DHT22;14278;50.784;4.630;2022-12-20T14:15:32;11.20;99.90
26655;DHT22;14278;50.784;4.630;2022-12-20T14:18:15;11.10;99.90
26655;DHT22;14278;50.784;4.630;2022-12-20T14:20:41;11.20;99.90
26655;DHT22;14278;50.784;4.630;2022-12-20T14:23:19;11.20;99.90
26655;DHT22;14278;50.784;4.630;2022-12-20T14:25:57;11.10;99.90
26655;DHT22;14278;50.784;4.630;2022-12-20T14:28:37;11.20;99.90
26655;DHT22;14278;50.784;4.630;2022-12-20T14:31:06;11.30;99.90
26655;DHT22;14278;50.784;4.630;2022-12-20T14:33:40;11.30;99.90
26655;DHT22;14278;50.784;4.630;2022-12-20T14:36:26;11.20;99.90
26655;DHT22;14278;50.784;4.630;2022-12-20T14:38:52;11.30;99.90
26655;DHT22;14278;50.784;4.630;2022-12-20T14:44:12;11.30;99.90
26655;DHT22;14278;50.784;4.630;2022-12-20T14:46:39;11.30;99.90
26655;DHT22;14278;50.784;4.630;2022-12-20T14:49:30;11.30;99.90
26655;DHT22;14278;50.784;4.630;2022-12-20T14:52:19;11.30;99.90
26655;DHT22;14278;50.784;4.630;2022-12-20T14:54:49;11.30;99.90
26655;DHT22;14278;50.784;4.630;2022-12-20T14:57:31;11.20;99.90
26655;DHT22;14278;50.784;4.630;2022-12-20T15:00:13;11.40;99.90
26655;DHT22;14278;50.784;4.630;2022-12-20T15:08:31;11.40;99.90
26655;DHT22;14278;50.784;4.630;2022-12-20T15:13:39;11.30;99.90
26655;DHT22;14278;50.784;4.630;2022-12-20T15:16:16;11.20;99.90
26655;DHT22;14278;50.784;4.630;2022-12-20T15:18:46;11.20;99.90
26655;DHT22;14278;50.784;4.630;2022-12-20T15:21:29;11.10;99.90
26655;DHT22;14278;50.784;4.630;2022-12-20T15:23:57;11.10;99.90
26655;DHT22;14278;50.784;4.630;2022-12-20T15:26:25;11.10;99.90
26655;DHT22;14278;50.784;4.630;2022-12-20T15:28:52;11.00;99.90
26655;DHT22;14278;50.784;4.630;2022-12-20T15:31:20;11.00;99.90
26655;DHT22;14278;50.784;4.630;2022-12-20T15:33:49;10.90;99.90
26655;DHT22;14278;50.784;4.630;2022-12-20T15:36:20;11.00;99.90
26655;DHT22;14278;50.784;4.630;2022-12-20T15:38:47;11.00;99.90
26655;DHT22;14278;50.784;4.630;2022-12-20T15:43:46;11.10;99.90
26655;DHT22;14278;50.784;4.630;2022-12-20T15:46:14;11.10;99.90
26655;DHT22;14278;50.784;4.630;2022-12-20T15:48:40;11.10;99.90
26655;DHT22;14278;50.784;4.630;2022-12-20T15:51:17;11.20;99.90
26655;DHT22;14278;50.784;4.630;2022-12-20T15:53:44;11.20;99.90
26655;DHT22;14278;50.784;4.630;2022-12-20T15:56:19;11.10;99.90
26655;DHT22;14278;50.784;4.630;2022-12-20T15:58:48;11.10;99.90
26655;DHT22;14278;50.784;4.630;2022-12-20T16:01:20;11.00;99.90
26655;DHT22;14278;50.784;4.630;2022-12-20T16:03:47;10.90;99.90
26655;DHT22;14278;50.784;4.630;2022-12-20T16:06:13;11.00;99.90
26655;DHT22;14278;50.784;4.630;2022-12-20T16:08:39;11.00;99.90
26655;DHT22;14278;50.784;4.630;2022-12-20T16:11:12;11.10;99.90
26655;DHT22;14278;50.784;4.630;2022-12-20T16:13:42;11.00;99.90
26655;DHT22;14278;50.784;4.630;2022-12-20T16:16:16;11.10;99.90
26655;DHT22;14278;50.784;4.630;2022-12-20T16:18:42;11.20;99.90
26655;DHT22;14278;50.784;4.630;2022-12-20T16:21:18;11.20;99.90
26655;DHT22;14278;50.784;4.630;2022-12-20T16:23:45;11.30;99.90
26655;DHT22;14278;50.784;4.630;2022-12-20T16:26:13;11.00;99.90
26655;DHT22;14278;50.784;4.630;2022-12-20T16:28:39;11.10;99.90
26655;DHT22;14278;50.784;4.630;2022-12-20T16:31:10;11.20;99.90
26655;DHT22;14278;50.784;4.630;2022-12-20T16:33:36;11.20;99.90
26655;DHT22;14278;50.784;4.630;2022-12-20T16:36:02;11.20;99.90
26655;DHT22;14278;50.784;4.630;2022-12-20T16:38:28;11.30;99.90
26655;DHT22;14278;50.784;4.630;2022-12-20T16:40:54;11.30;99.90
26655;DHT22;14278;50.784;4.630;2022-12-20T16:43:20;11.30;99.90
26655;DHT22;14278;50.784;4.630;2022-12-20T16:45:46;11.30;99.90
26655;DHT22;14278;50.784;4.630;2022-12-20T16:48:12;11.30;99.90
26655;DHT22;14278;50.784;4.630;2022-12-20T16:50:38;11.20;99.90
26655;DHT22;14278;50.784;4.630;2022-12-20T16:53:11;11.20;99.90
26655;DHT22;14278;50.784;4.630;2022-12-20T16:55:37;11.20;99.90
26655;DHT22;14278;50.784;4.630;2022-12-20T16:58:05;11.30;99.90
26655;DHT22;14278;50.784;4.630;2022-12-20T17:00:32;11.40;99.90
26655;DHT22;14278;50.784;4.630;2022-12-20T17:02:57;11.40;99.90
26655;DHT22;14278;50.784;4.630;2022-12-20T17:05:29;11.30;99.90
26655;DHT22;14278;50.784;4.630;2022-12-20T17:07:56;11.20;99.90
26655;DHT22;14278;50.784;4.630;2022-12-20T17:10:23;11.20;99.90
26655;DHT22;14278;50.784;4.630;2022-12-20T17:12:50;11.40;99.90
26655;DHT22;14278;50.784;4.630;2022-12-20T17:15:28;11.50;99.90
26655;DHT22;14278;50.784;4.630;2022-12-20T17:17:55;11.50;99.90
26655;DHT22;14278;50.784;4.630;2022-12-20T17:20:21;11.50;99.90
26655;DHT22;14278;50.784;4.630;2022-12-20T17:22:50;11.50;99.90
26655;DHT22;14278;50.784;4.630;2022-12-20T17:25:20;11.30;99.90
26655;DHT22;14278;50.784;4.630;2022-12-20T17:27:46;11.30;99.90
26655;DHT22;14278;50.784;4.630;2022-12-20T17:30:12;11.40;99.90
26655;DHT22;14278;50.784;4.630;2022-12-20T17:32:38;11.50;99.90
26655;DHT22;14278;50.784;4.630;2022-12-20T17:35:05;11.60;99.90
26655;DHT22;14278;50.784;4.630;2022-12-20T17:37:32;11.50;99.90
26655;DHT22;14278;50.784;4.630;2022-12-20T17:39:59;11.40;99.90